createdAt,value
2022-12-03T00:00:23.673Z,102416.94
2022-12-03T00:02:51.748Z,102430.09
2022-12-03T00:05:20.028Z,102423.16
2022-12-03T00:07:47.985Z,102424.09
2022-12-03T00:10:16.307Z,102418.03
2022-12-03T00:12:46.329Z,102413.03
2022-12-03T00:15:15.601Z,102395.56
2022-12-03T00:17:43.569Z,102393.03
2022-12-03T00:20:18.932Z,102387.84
2022-12-03T00:22:46.788Z,102384.41
2022-12-03T00:25:14.678Z,102385.38
2022-12-03T00:27:42.780Z,102373.19
2022-12-03T00:30:12.486Z,102375.97
2022-12-03T00:32:44.357Z,102376.00
2022-12-03T00:35:12.474Z,102368.13
2022-12-03T00:37:40.424Z,102358.44
2022-12-03T00:40:09.470Z,102356.72
2022-12-03T00:42:38.004Z,102349.84
2022-12-03T00:45:09.379Z,102353.34
2022-12-03T00:47:37.397Z,102347.31
2022-12-03T00:50:08.258Z,102342.91
2022-12-03T00:52:38.725Z,102345.47
2022-12-03T00:55:07.555Z,102346.28
2022-12-03T00:57:35.706Z,102345.41
2022-12-03T01:00:03.880Z,102346.31
2022-12-03T01:02:32.728Z,102340.22
2022-12-03T01:05:00.652Z,102342.03
2022-12-03T01:07:32.707Z,102342.91
2022-12-03T01:10:00.707Z,102342.88
2022-12-03T01:12:28.696Z,102347.16
2022-12-03T01:14:56.548Z,102366.41
2022-12-03T01:17:24.458Z,102360.34
2022-12-03T01:19:53.277Z,102375.19
2022-12-03T01:22:21.130Z,102366.50
2022-12-03T01:24:50.593Z,102381.31
2022-12-03T01:27:18.807Z,102385.72
2022-12-03T01:29:46.643Z,102387.47
2022-12-03T01:32:16.676Z,102384.84
2022-12-03T01:34:44.769Z,102388.34
2022-12-03T01:37:12.781Z,102396.19
2022-12-03T01:39:40.848Z,102405.81
2022-12-03T01:42:16.407Z,102413.69
2022-12-03T01:44:44.853Z,102413.63
2022-12-03T01:47:17.099Z,102417.13
2022-12-03T01:49:48.212Z,102421.50
2022-12-03T01:52:20.537Z,102425.81
2022-12-03T01:54:51.907Z,102421.41
2022-12-03T01:57:27.067Z,102423.19
2022-12-03T01:59:57.094Z,102405.59
2022-12-03T02:02:26.720Z,102411.81
2022-12-03T02:04:55.685Z,102414.41
2022-12-03T02:07:27.339Z,102406.50
2022-12-03T02:09:57.465Z,102416.22
2022-12-03T02:12:32.953Z,102413.56
2022-12-03T02:15:01.894Z,102421.34
2022-12-03T02:17:30.697Z,102411.66
2022-12-03T02:19:59.839Z,102425.59
2022-12-03T02:22:35.509Z,102410.66
2022-12-03T02:25:14.292Z,102431.69
2022-12-03T02:27:42.579Z,102428.19
2022-12-03T02:30:12.714Z,102432.47
2022-12-03T02:32:41.211Z,102435.00
2022-12-03T02:35:15.405Z,102429.84
2022-12-03T02:37:46.163Z,102427.25
2022-12-03T02:40:21.274Z,102424.59
2022-12-03T02:42:50.364Z,102415.84
2022-12-03T02:45:21.598Z,102433.31
2022-12-03T02:47:52.598Z,102434.22
2022-12-03T02:50:29.930Z,102428.06
2022-12-03T02:53:01.416Z,102435.06
2022-12-03T02:55:37.014Z,102428.13
2022-12-03T02:58:06.904Z,102422.84
2022-12-03T03:00:37.202Z,102416.53
2022-12-03T03:03:07.438Z,102422.66
2022-12-03T03:05:38.818Z,102418.25
2022-12-03T03:08:08.685Z,102419.13
2022-12-03T03:10:40.475Z,102420.00
2022-12-03T03:13:11.029Z,102419.13
2022-12-03T03:15:40.483Z,102416.56
2022-12-03T03:18:09.650Z,102414.75
2022-12-03T03:20:38.286Z,102416.53
2022-12-03T03:23:07.192Z,102403.50
2022-12-03T03:25:35.091Z,102412.25
2022-12-03T03:28:04.954Z,102409.63
2022-12-03T03:30:33.640Z,102418.41
2022-12-03T03:33:03.226Z,102418.34
2022-12-03T03:35:31.264Z,102420.06
2022-12-03T03:37:59.906Z,102411.28
2022-12-03T03:40:28.499Z,102414.88
2022-12-03T03:42:58.158Z,102414.03
2022-12-03T03:45:29.612Z,102414.88
2022-12-03T03:47:59.286Z,102421.94
2022-12-03T03:50:29.311Z,102412.22
2022-12-03T03:52:58.943Z,102409.69
2022-12-03T03:55:27.419Z,102407.06
2022-12-03T03:57:55.990Z,102400.94
2022-12-03T04:00:24.268Z,102414.00
2022-12-03T04:02:55.431Z,102393.78
2022-12-03T04:05:25.060Z,102410.50
2022-12-03T04:07:53.034Z,102412.19
2022-12-03T04:10:38.600Z,102405.25
2022-12-03T04:13:06.869Z,102410.50
2022-12-03T04:15:35.295Z,102406.94
2022-12-03T04:18:22.603Z,102410.50
2022-12-03T04:20:51.113Z,102407.84
2022-12-03T04:23:19.654Z,102392.06
2022-12-03T04:26:19.468Z,102399.06
2022-12-03T04:28:50.465Z,102403.41
2022-12-03T04:31:36.275Z,102386.88
2022-12-03T04:34:23.775Z,102390.34
2022-12-03T04:36:51.836Z,102392.06
2022-12-03T04:39:19.869Z,102402.56
2022-12-03T04:41:48.094Z,102377.97
2022-12-03T04:44:33.381Z,102390.25
2022-12-03T04:47:01.458Z,102386.78
2022-12-03T04:49:31.284Z,102380.59
2022-12-03T04:51:59.222Z,102371.88
2022-12-03T04:54:28.455Z,102371.00
2022-12-03T04:56:56.311Z,102371.94
2022-12-03T04:59:24.516Z,102379.78
2022-12-03T05:01:52.539Z,102368.34
2022-12-03T05:04:20.711Z,102373.63
2022-12-03T05:06:50.039Z,102377.16
2022-12-03T05:09:18.334Z,102374.59
2022-12-03T05:11:55.017Z,102384.22
2022-12-03T05:14:22.965Z,102372.88
2022-12-03T05:16:51.188Z,102364.97
2022-12-03T05:19:19.145Z,102366.75
2022-12-03T05:21:47.181Z,102365.81
2022-12-03T05:24:16.322Z,102357.91
2022-12-03T05:26:44.839Z,102361.44
2022-12-03T05:29:12.722Z,102369.38
2022-12-03T05:31:40.693Z,102367.53
2022-12-03T05:34:08.434Z,102369.31
2022-12-03T05:36:37.411Z,102350.91
2022-12-03T05:39:05.321Z,102355.31
2022-12-03T05:41:52.038Z,102357.06
2022-12-03T05:44:20.792Z,102353.53
2022-12-03T05:46:49.052Z,102357.00
2022-12-03T05:49:18.964Z,102344.78
2022-12-03T05:51:51.418Z,102356.97
2022-12-03T05:54:21.566Z,102349.91
2022-12-03T05:56:50.892Z,102348.13
2022-12-03T05:59:18.884Z,102346.44
2022-12-03T06:01:47.714Z,102346.34
2022-12-03T06:04:15.668Z,102351.53
2022-12-03T06:06:43.571Z,102364.63
2022-12-03T06:09:11.390Z,102350.66
2022-12-03T06:11:40.375Z,102354.09
2022-12-03T06:14:10.334Z,102353.19
2022-12-03T06:16:38.367Z,102350.50
2022-12-03T06:19:06.278Z,102341.78
2022-12-03T06:21:34.209Z,102334.78
2022-12-03T06:24:02.347Z,102333.03
2022-12-03T06:26:31.103Z,102328.66
2022-12-03T06:28:58.958Z,102330.41
2022-12-03T06:31:31.980Z,102329.53
2022-12-03T06:34:07.095Z,102333.72
2022-12-03T06:36:36.246Z,102326.00
2022-12-03T06:39:04.913Z,102311.03
2022-12-03T06:41:32.895Z,102339.88
2022-12-03T06:44:01.956Z,102333.69
2022-12-03T06:46:31.319Z,102336.31
2022-12-03T06:48:59.350Z,102339.81
2022-12-03T06:51:27.439Z,102335.47
2022-12-03T06:53:55.314Z,102333.69
2022-12-03T06:56:23.215Z,102339.75
2022-12-03T06:58:51.102Z,102341.56
2022-12-03T07:01:20.302Z,102333.50
2022-12-03T07:03:49.850Z,102354.63
2022-12-03T07:06:17.747Z,102345.84
2022-12-03T07:08:46.095Z,102351.91
2022-12-03T07:11:28.246Z,102348.38
2022-12-03T07:14:01.554Z,102350.16
2022-12-03T07:16:32.898Z,102362.25
2022-12-03T07:19:06.595Z,102360.50
2022-12-03T07:21:37.208Z,102355.31
2022-12-03T07:24:05.592Z,102353.50
2022-12-03T07:26:34.128Z,102362.28
2022-12-03T07:29:03.179Z,102354.31
2022-12-03T07:31:31.265Z,102358.66
2022-12-03T07:33:59.367Z,102351.69
2022-12-03T07:36:29.814Z,102359.47
2022-12-03T07:38:57.642Z,102362.97
2022-12-03T07:41:25.580Z,102358.53
2022-12-03T07:43:53.405Z,102357.69
2022-12-03T07:46:21.286Z,102351.59
2022-12-03T07:48:49.668Z,102353.25
2022-12-03T07:51:17.637Z,102354.09
2022-12-03T07:53:47.019Z,102352.19
2022-12-03T07:56:15.216Z,102361.81
2022-12-03T07:58:43.089Z,102361.69
2022-12-03T08:01:13.179Z,102386.16
2022-12-03T08:03:42.917Z,102379.09
2022-12-03T08:06:10.862Z,102377.41
2022-12-03T08:08:38.838Z,102373.88
2022-12-03T08:11:13.951Z,102372.09
2022-12-03T08:13:43.159Z,102361.56
2022-12-03T08:16:17.049Z,102367.63
2022-12-03T08:18:45.552Z,102371.94
2022-12-03T08:21:15.446Z,102363.91
2022-12-03T08:23:44.086Z,102359.59
2022-12-03T08:26:23.378Z,102363.00
2022-12-03T08:28:51.624Z,102352.63
2022-12-03T08:31:26.849Z,102349.91
2022-12-03T08:34:07.849Z,102338.28
2022-12-03T08:36:36.658Z,102326.78
2022-12-03T08:39:33.594Z,102337.38
2022-12-03T08:42:34.315Z,102352.44
2022-12-03T08:45:35.121Z,102348.81
2022-12-03T08:48:06.483Z,102345.25
2022-12-03T08:50:45.868Z,102335.44
2022-12-03T08:53:29.744Z,102353.09
2022-12-03T08:55:59.924Z,102347.72
2022-12-03T08:58:57.505Z,102339.00
2022-12-03T09:01:34.569Z,102362.06
2022-12-03T09:04:26.268Z,102345.94
2022-12-03T09:06:55.600Z,102347.91
2022-12-03T09:09:27.055Z,102356.69
2022-12-03T09:11:56.366Z,102334.63
2022-12-03T09:14:25.957Z,102350.78
2022-12-03T09:16:56.209Z,102352.59
2022-12-03T09:19:27.861Z,102338.66
2022-12-03T09:21:57.709Z,102346.47
2022-12-03T09:24:27.308Z,102330.47
2022-12-03T09:26:55.687Z,102330.72
2022-12-03T09:29:30.935Z,102279.75
2022-12-03T09:32:00.092Z,102283.44
2022-12-03T09:34:28.530Z,102296.72
2022-12-03T09:36:58.732Z,102272.06
2022-12-03T09:39:27.972Z,102290.63
2022-12-03T09:41:56.906Z,102287.94
2022-12-03T09:44:26.019Z,102269.75
2022-12-03T09:47:00.088Z,102254.75
2022-12-03T09:49:35.103Z,102259.19
2022-12-03T09:52:05.620Z,102266.22
2022-12-03T09:54:35.226Z,102254.06
2022-12-03T09:57:04.913Z,102258.44
2022-12-03T09:59:34.787Z,102252.28
2022-12-03T10:02:16.592Z,102262.03
2022-12-03T10:04:44.850Z,102269.00
2022-12-03T10:07:13.409Z,102274.50
2022-12-03T10:09:44.501Z,102264.00
2022-12-03T10:12:24.755Z,102256.06
2022-12-03T10:14:56.813Z,102249.44
2022-12-03T10:17:27.703Z,102252.66
2022-12-03T10:19:55.927Z,102250.88
2022-12-03T10:22:23.921Z,102263.34
2022-12-03T10:25:08.883Z,102250.16
2022-12-03T10:27:37.581Z,102241.22
2022-12-03T10:30:16.285Z,102255.19
2022-12-03T10:32:48.199Z,102265.63
2022-12-03T10:35:21.849Z,102265.03
2022-12-03T10:38:01.306Z,102252.00
2022-12-03T10:40:31.591Z,102252.69
2022-12-03T10:43:21.333Z,102244.78
2022-12-03T10:45:51.674Z,102239.66
2022-12-03T10:48:25.508Z,102247.53
2022-12-03T10:51:07.718Z,102235.34
2022-12-03T10:53:41.546Z,102234.56
2022-12-03T10:56:27.608Z,102230.94
2022-12-03T11:00:07.171Z,102231.94
2022-12-03T11:06:37.300Z,102204.75
2022-12-03T11:09:09.066Z,102216.19
2022-12-03T11:11:37.447Z,102218.69
2022-12-03T11:14:06.379Z,102220.56
2022-12-03T11:17:08.853Z,102210.13
2022-12-03T11:19:52.154Z,102217.28
2022-12-03T11:22:49.578Z,102193.50
2022-12-03T11:25:58.164Z,102202.50
2022-12-03T11:28:40.396Z,102195.38
2022-12-03T11:31:37.098Z,102191.88
2022-12-03T11:34:42.770Z,102189.63
2022-12-03T11:37:29.552Z,102166.13
2022-12-03T11:40:39.366Z,102150.41
2022-12-03T11:43:11.218Z,102154.75
2022-12-03T11:45:47.295Z,102167.00
2022-12-03T11:48:17.060Z,102153.97
2022-12-03T11:50:51.074Z,102173.94
2022-12-03T11:53:28.883Z,102158.25
2022-12-03T11:56:08.913Z,102153.97
2022-12-03T11:58:38.658Z,102162.91
2022-12-03T12:01:09.125Z,102138.59
2022-12-03T12:03:42.626Z,102128.91
2022-12-03T12:06:12.357Z,102115.59
2022-12-03T12:08:44.646Z,102115.50
2022-12-03T12:11:21.470Z,102113.78
2022-12-03T12:13:59.061Z,102120.06
2022-12-03T12:16:48.106Z,102119.28
2022-12-03T12:19:33.160Z,102113.50
2022-12-03T12:22:20.209Z,102092.53
2022-12-03T12:24:52.080Z,102106.03
2022-12-03T12:27:25.926Z,102095.38
2022-12-03T12:29:57.328Z,102087.72
2022-12-03T12:32:28.169Z,102067.19
2022-12-03T12:35:01.164Z,102055.03
2022-12-03T12:37:47.753Z,102078.13
2022-12-03T12:40:28.447Z,102056.31
2022-12-03T12:43:00.169Z,102030.97
2022-12-03T12:45:31.482Z,102026.28
2022-12-03T12:48:09.327Z,102037.50
2022-12-03T12:50:40.269Z,102030.25
2022-12-03T12:53:14.037Z,102048.50
2022-12-03T12:55:42.551Z,102059.13
2022-12-03T12:58:21.558Z,102040.84
2022-12-03T13:00:53.349Z,102037.50
2022-12-03T13:03:32.854Z,102051.50
2022-12-03T13:06:03.373Z,102059.34
2022-12-03T13:08:33.495Z,102048.81
2022-12-03T13:11:03.810Z,102029.63
2022-12-03T13:13:44.319Z,102033.81
2022-12-03T13:16:19.155Z,102020.69
2022-12-03T13:18:56.391Z,102031.53
2022-12-03T13:21:26.999Z,102026.09
2022-12-03T13:23:57.047Z,102016.44
2022-12-03T13:26:36.542Z,102027.97
2022-12-03T13:29:19.020Z,102020.88
2022-12-03T13:31:53.408Z,101993.56
2022-12-03T13:34:33.047Z,101990.88
2022-12-03T13:37:15.660Z,102013.81
2022-12-03T13:39:57.537Z,102004.19
2022-12-03T13:42:43.415Z,102007.56
2022-12-03T13:45:33.025Z,102015.63
2022-12-03T13:48:21.254Z,102014.59
2022-12-03T13:50:50.158Z,102000.28
2022-12-03T13:53:23.465Z,102016.16
2022-12-03T13:56:08.414Z,102006.41
2022-12-03T13:58:36.453Z,102004.47
2022-12-03T14:01:06.730Z,102022.19
2022-12-03T14:03:47.562Z,102034.34
2022-12-03T14:06:20.708Z,102022.09
2022-12-03T14:08:54.056Z,102004.44
2022-12-03T14:11:39.715Z,101985.09
2022-12-03T14:14:12.153Z,102028.03
2022-12-03T14:16:42.912Z,102020.03
2022-12-03T14:19:13.103Z,102028.84
2022-12-03T14:21:45.122Z,102033.91
2022-12-03T14:24:15.835Z,102033.06
2022-12-03T14:26:46.179Z,102033.97
2022-12-03T14:29:14.162Z,102023.31
2022-12-03T14:32:05.654Z,102034.66
2022-12-03T14:34:33.717Z,102027.66
2022-12-03T14:37:01.764Z,102032.00
2022-12-03T14:39:29.820Z,102012.50
2022-12-03T14:42:16.887Z,102045.97
2022-12-03T14:44:47.048Z,102047.53
2022-12-03T14:47:19.043Z,102035.28
2022-12-03T14:49:47.592Z,102030.94
2022-12-03T14:52:15.786Z,102029.94
2022-12-03T14:54:44.016Z,102029.94
2022-12-03T14:57:14.570Z,102020.31
2022-12-03T14:59:44.472Z,102017.69
2022-12-03T15:02:13.224Z,102010.75
2022-12-03T15:04:52.619Z,102014.19
2022-12-03T15:07:25.549Z,102022.13
2022-12-03T15:09:54.158Z,102023.84
2022-12-03T15:12:37.220Z,102029.84
2022-12-03T15:15:05.650Z,102030.72
2022-12-03T15:17:37.601Z,102017.63
2022-12-03T15:20:10.229Z,102028.09
2022-12-03T15:22:55.560Z,102023.78
2022-12-03T15:25:30.093Z,102028.09
2022-12-03T15:28:16.789Z,102017.66
2022-12-03T15:30:44.935Z,102023.63
2022-12-03T15:33:24.999Z,102010.47
2022-12-03T15:36:11.007Z,102013.81
2022-12-03T15:38:38.994Z,102013.78
2022-12-03T15:41:24.447Z,102015.59
2022-12-03T15:43:53.387Z,101999.69
2022-12-03T15:46:23.753Z,102022.47
2022-12-03T15:48:53.615Z,102019.03
2022-12-03T15:51:24.558Z,102019.94
2022-12-03T15:53:53.030Z,102019.91
2022-12-03T15:56:22.321Z,102026.06
2022-12-03T15:58:53.568Z,102022.56
2022-12-03T16:01:23.859Z,102031.34
2022-12-03T16:03:51.806Z,102028.72
2022-12-03T16:06:19.862Z,102027.03
2022-12-03T16:08:49.787Z,102018.13
2022-12-03T16:11:18.071Z,102041.00
2022-12-03T16:13:47.060Z,102004.06
2022-12-03T16:16:15.223Z,102039.06
2022-12-03T16:18:43.883Z,102044.31
2022-12-03T16:21:11.846Z,102048.72
2022-12-03T16:23:42.286Z,102043.41
2022-12-03T16:26:18.278Z,102050.34
2022-12-03T16:28:47.333Z,102076.22
2022-12-03T16:31:15.467Z,102085.03
2022-12-03T16:33:43.541Z,102088.56
2022-12-03T16:36:12.464Z,102084.22
2022-12-03T16:38:40.534Z,102080.75
2022-12-03T16:41:08.606Z,102075.31
2022-12-03T16:43:39.515Z,102081.53
2022-12-03T16:46:26.364Z,102081.56
2022-12-03T16:48:58.996Z,102082.41
2022-12-03T16:51:28.575Z,102076.31
2022-12-03T16:53:56.670Z,102083.25
2022-12-03T16:56:24.698Z,102070.09
2022-12-03T16:58:54.148Z,102082.50
2022-12-03T17:01:23.389Z,102085.13
2022-12-03T17:03:51.552Z,102074.59
2022-12-03T17:06:24.261Z,102085.97
2022-12-03T17:08:53.155Z,102086.03
2022-12-03T17:11:21.318Z,102075.44
2022-12-03T17:13:49.397Z,102076.44
2022-12-03T17:16:19.170Z,102074.66
2022-12-03T17:18:49.396Z,102072.97
2022-12-03T17:21:18.530Z,102066.69
2022-12-03T17:23:48.931Z,102084.25
2022-12-03T17:26:24.738Z,102077.16
2022-12-03T17:28:55.878Z,102085.09
2022-12-03T17:31:28.314Z,102082.50
2022-12-03T17:33:57.850Z,102074.66
2022-12-03T17:36:25.894Z,102071.19
2022-12-03T17:38:53.980Z,102072.16
2022-12-03T17:41:22.405Z,102078.19
2022-12-03T17:43:59.962Z,102073.00
2022-12-03T17:46:35.280Z,102074.75
2022-12-03T17:49:03.743Z,102074.75
2022-12-03T17:51:31.799Z,102064.28
2022-12-03T17:53:59.952Z,102068.63
2022-12-03T17:56:36.980Z,102067.72
2022-12-03T17:59:30.633Z,102067.75
2022-12-03T18:02:07.045Z,102061.59
2022-12-03T18:04:35.073Z,102076.44
2022-12-03T18:07:04.057Z,102066.91
2022-12-03T18:09:32.849Z,102066.88
2022-12-03T18:12:04.347Z,102076.47
2022-12-03T18:14:33.176Z,102066.78
2022-12-03T18:17:03.487Z,102064.28
2022-12-03T18:19:31.285Z,102071.22
2022-12-03T18:21:59.361Z,102059.75
2022-12-03T18:24:27.384Z,102073.78
2022-12-03T18:26:56.291Z,102066.75
2022-12-03T18:29:26.668Z,102080.81
2022-12-03T18:31:57.575Z,102078.28
2022-12-03T18:34:27.055Z,102076.44
2022-12-03T18:36:56.458Z,102084.25
2022-12-03T18:39:28.532Z,102075.59
2022-12-03T18:41:57.122Z,102070.34
2022-12-03T18:44:25.786Z,102067.63
2022-12-03T18:46:54.671Z,102070.41
2022-12-03T18:49:26.130Z,102059.06
2022-12-03T18:51:59.793Z,102071.25
2022-12-03T18:54:28.059Z,102062.63
2022-12-03T18:56:56.340Z,102050.28
2022-12-03T18:59:24.288Z,102053.00
2022-12-03T19:01:54.279Z,102062.59
2022-12-03T19:04:23.875Z,102063.53
2022-12-03T19:06:52.088Z,102020.72
2022-12-03T19:09:21.540Z,102052.25
2022-12-03T19:11:51.124Z,102053.88
2022-12-03T19:14:19.217Z,102035.53
2022-12-03T19:16:47.199Z,102045.13
2022-12-03T19:19:15.257Z,102047.75
2022-12-03T19:21:43.186Z,102029.28
2022-12-03T19:24:26.566Z,102032.84
2022-12-03T19:26:57.606Z,102039.91
2022-12-03T19:29:25.924Z,102045.91
2022-12-03T19:31:54.593Z,102053.66
2022-12-03T19:34:22.800Z,102053.72
2022-12-03T19:36:50.767Z,102051.91
2022-12-03T19:39:18.810Z,102046.63
2022-12-03T19:41:46.912Z,102019.53
2022-12-03T19:44:20.971Z,102038.78
2022-12-03T19:46:53.002Z,102036.03
2022-12-03T19:49:22.948Z,102039.66
2022-12-03T19:51:52.454Z,102039.56
2022-12-03T19:54:26.387Z,102045.81
2022-12-03T19:56:54.403Z,102049.19
2022-12-03T19:59:25.970Z,102032.50
2022-12-03T20:01:55.774Z,102044.84
2022-12-03T20:04:53.312Z,102037.75
2022-12-03T20:07:21.291Z,102016.66
2022-12-03T20:09:51.249Z,102040.50
2022-12-03T20:12:19.280Z,102045.59
2022-12-03T20:14:49.905Z,102048.22
2022-12-03T20:17:17.892Z,102046.56
2022-12-03T20:19:50.241Z,102050.72
2022-12-03T20:22:18.239Z,102044.69
2022-12-03T20:24:46.310Z,102044.69
2022-12-03T20:27:17.167Z,102043.69
2022-12-03T20:30:07.530Z,102018.16
2022-12-03T20:32:40.572Z,102001.56
2022-12-03T20:35:12.065Z,102027.06
2022-12-03T20:37:40.078Z,102012.97
2022-12-03T20:40:13.555Z,102017.34
2022-12-03T20:42:57.902Z,102007.69
2022-12-03T20:45:27.412Z,102012.91
2022-12-03T20:48:08.093Z,102005.91
2022-12-03T20:50:38.577Z,102003.97
2022-12-03T20:53:23.204Z,102007.59
2022-12-03T20:55:56.736Z,102017.84
2022-12-03T20:58:26.559Z,102008.16
2022-12-03T21:00:56.530Z,102021.09
2022-12-03T21:03:26.735Z,102014.84
2022-12-03T21:06:03.776Z,102014.78
2022-12-03T21:08:41.038Z,102005.09
2022-12-03T21:11:20.082Z,102018.97
2022-12-03T21:13:51.739Z,102012.78
2022-12-03T21:16:45.604Z,102029.34
2022-12-03T21:19:11.445Z,102029.44
2022-12-03T21:21:39.252Z,102023.50
2022-12-03T21:24:08.803Z,102020.94
2022-12-03T21:26:37.426Z,101999.00
2022-12-03T21:29:06.702Z,102011.31
2022-12-03T21:31:45.910Z,102007.81
2022-12-03T21:34:14.872Z,101997.28
2022-12-03T21:36:42.934Z,102005.91
2022-12-03T21:39:14.233Z,102016.09
2022-12-03T21:41:42.027Z,102004.63
2022-12-03T21:44:30.105Z,102021.63
2022-12-03T21:47:12.278Z,102025.97
2022-12-03T21:49:42.236Z,102025.72
2022-12-03T21:52:12.889Z,102029.19
2022-12-03T21:54:40.871Z,102023.91
2022-12-03T21:57:09.169Z,102028.34
2022-12-03T21:59:37.466Z,102013.38
2022-12-03T22:02:07.908Z,102026.56
2022-12-03T22:04:36.157Z,102010.72
2022-12-03T22:07:06.502Z,102001.91
2022-12-03T22:09:34.796Z,102022.28
2022-12-03T22:12:03.140Z,102032.00
2022-12-03T22:14:32.407Z,102031.16
2022-12-03T22:17:00.569Z,102032.97
2022-12-03T22:19:30.288Z,102014.78
2022-12-03T22:22:00.167Z,102007.84
2022-12-03T22:24:31.016Z,102014.16
2022-12-03T22:26:58.982Z,102008.06
2022-12-03T22:29:28.908Z,101999.28
2022-12-03T22:32:00.477Z,102001.16
2022-12-03T22:34:33.404Z,102006.38
2022-12-03T22:37:01.595Z,101993.31
2022-12-03T22:39:29.493Z,102010.84
2022-12-03T22:41:57.579Z,102005.66
2022-12-03T22:44:25.914Z,102007.44
2022-12-03T22:46:56.053Z,101998.81
2022-12-03T22:49:24.152Z,101991.03
2022-12-03T22:52:00.144Z,101984.84
2022-12-03T22:54:29.130Z,101962.75
2022-12-03T22:56:58.450Z,101980.53
2022-12-03T22:59:29.716Z,101962.94
2022-12-03T23:01:57.608Z,101984.06
2022-12-03T23:04:26.479Z,101981.41
2022-12-03T23:06:57.886Z,101982.38
2022-12-03T23:09:31.139Z,101990.25
2022-12-03T23:12:01.158Z,101992.03
2022-12-03T23:14:31.035Z,101992.03
2022-12-03T23:17:01.614Z,101995.50
2022-12-03T23:19:29.719Z,101998.13
2022-12-03T23:22:07.314Z,101979.66
2022-12-03T23:24:35.309Z,101982.41
2022-12-03T23:27:03.642Z,102004.22
2022-12-03T23:29:31.427Z,101992.09
2022-12-03T23:32:15.359Z,101997.28
2022-12-03T23:34:43.351Z,101997.34
2022-12-03T23:37:12.804Z,102000.03
2022-12-03T23:39:43.343Z,102002.56
2022-12-03T23:42:11.376Z,101994.81
2022-12-03T23:44:39.294Z,101991.34
2022-12-03T23:47:10.394Z,101979.94
2022-12-03T23:49:38.586Z,101996.56
2022-12-03T23:52:06.684Z,101992.31
2022-12-03T23:54:39.992Z,102003.56
2022-12-03T23:57:12.609Z,101969.38
2022-12-03T23:59:42.128Z,101973.81
